Aérodrome :
LOGIN :

S'inscrire | Disclaimer

   EN    FR    IT 

 










Légende :    VFR   VFR Marginal   IFR   IFR Intensif   IFR Très Intensif
Visi : 
Plafond : 
>= 8 km
>= 3000ft
5 à 8 km
1000 à 3000 ft
1500m à 5 km
500 à 1000 ft
800 à 1500m
200 à 500 ft
< 800m
< 200 ft
Symboles :   Orages  Brouillard  Fortes neiges  Fortes précipitations  Vent > 20 kt
SIGMETs :   Divers  Orages  Givrage  Turbulence  Onde Orograph.  Cendres Volcan.






- Altitude de l'aérodrome : 1470 ft
- Code IATA : KLU


LOWK - Klagenfurt

DERNIER METAR :
  • 192350Z AUTO 31004KT 9999 NSC M03/M07 Q1037

METARs EXPIRÉS :
  • 192320Z AUTO 28004KT 210V300 9999 NSC M03/M07 Q1037
  • 192250Z AUTO 29003KT 230V320 9999 NSC M03/M07 Q1037
  • 192220Z 30002KT 9999 FEW090 M02/M06 Q1037 R10L/19//95 NOSIG
  • 192150Z VRB02KT 9999 FEW090 M02/M06 Q1036 R10L/19//95 NOSIG
  • 192120Z 32003KT 9999 FEW070 SCT100 M02/M06 Q1036 R10L/19//95 NOSIG

TAF TAF LOWK
Valide du 20 à 00h jusqu'au 21 à 00h UTC


192315Z 2000/2024 33004KT 9999 FEW120 TX03/2014Z TNM04/2005Z
TEMPO 2012/2018 09007KT 9999 FEW060 SCT070



MET'MAP, la Météo Aéronautique d'un coup d'oeil ! - Copyright ORBIFLY Décembre 2007 - Disclaimer

ORBIFLY MET'MAP TEAM :

Programmation & Développement : Alexandra Zaïnal
Sur une idée originale de : Baudouin d'Aumeries
Assistance à la programmation : Marc-Olivier Méhu
Soutien technique & logistique : Manuel Goepfert

Contact : metmap@orbifly.com




SOURCES & CREDITS :

   NOAA